Time;durP1;ratioP1;P1;durP2;ratioP2;P2;SDS_P1;SDS_P2;PMS_P1;PMS_P2;Temp;Humidity;BMP_temperature;BMP_pressure;BME280_temperature;BME280_humidity;BME280_pressure;Samples;Min_cycle;Max_cycle;Signal;HPM_P1;HPM_P2
2023/02/14 00:13:29;;;;;;;35.10;19.50;;;;;;;5.28;74.50;102285.63;127541;1294;115040;-68
2023/02/14 00:17:33;;;;;;;33.90;19.40;;;;;;;5.27;74.56;102282.80;126766;1290;129874;-68
2023/02/14 00:21:27;;;;;;;;;;;;;;;;;;;;;
2023/02/14 00:25:21;;;;;;;;;;;;;;;;;;;;;
2023/02/14 00:29:55;;;;;;;;;;;;;;;;;;;;;
2023/02/14 00:33:59;;;;;;;31.00;19.70;;;;;;;5.24;74.41;102288.45;127303;1305;128864;-68
2023/02/14 00:37:53;;;;;;;30.10;19.70;;;;;;;5.23;74.57;102290.39;126039;1299;115292;-68
2023/02/14 00:41:55;;;;;;;33.30;21.00;;;;;;;5.22;74.51;102291.45;121290;1318;5421287;-68
2023/02/14 00:50:10;;;;;;;29.60;20.00;;;;;;;5.21;74.47;102291.98;125538;1301;639969;-68
2023/02/14 00:54:06;;;;;;;29.00;19.30;;;;;;;5.18;74.47;102300.29;127731;1299;129175;-67
2023/02/14 00:58:08;;;;;;;33.70;20.70;;;;;;;5.17;74.43;102306.31;127351;1303;115439;-67
2023/02/14 01:02:10;;;;;;;28.80;19.80;;;;;;;5.17;74.59;102303.64;123495;1285;5597139;-68
2023/02/14 01:06:06;;;;;;;;;;;;;;;;;;;;;
2023/02/14 01:10:18;;;;;;;33.20;18.40;;;;;;;5.15;74.58;102291.41;125690;1301;115031;-68
2023/02/14 01:14:08;;;;;;;;;;;;;;;;;;;;;
2023/02/14 01:18:02;;;;;;;;;;;;;;;;;;;;;
2023/02/14 01:26:43;;;;;;;27.50;18.80;;;;;;;5.15;74.66;102293.37;125668;1310;638811;-67
2023/02/14 01:30:38;;;;;;;;;;;;;;;;;;;;;
2023/02/14 01:34:14;;;;;;;;;;;;;;;;;;;;;
2023/02/14 01:38:06;;;;;;;;;;;;;;;5.10;74.63;102293.34;128889;1277;114832;-67
2023/02/14 01:42:01;;;;;;;30.90;18.90;;;;;;;5.07;74.39;102289.77;124600;1290;114901;-67
2023/02/14 01:45:53;;;;;;;29.00;18.50;;;;;;;5.05;74.56;102288.17;127549;1302;114864;-68
2023/02/14 01:49:44;;;;;;;;;;;;;;;;;;;;;
2023/02/14 01:53:46;;;;;;;27.60;18.30;;;;;;;5.00;74.65;102284.97;127505;1296;129991;-67
2023/02/14 01:57:48;;;;;;;26.80;18.10;;;;;;;4.99;74.71;102282.65;126652;1286;115414;-67
2023/02/14 02:01:33;;;;;;;29.70;18.60;;;;;;;4.99;74.80;102284.77;126095;1313;114925;-66
2023/02/14 02:05:26;;;;;;;;;;;;;;;;;;;;;
2023/02/14 02:09:24;;;;;;;28.60;18.50;;;;;;;4.97;74.81;102282.46;124869;1325;114828;-66
2023/02/14 02:13:18;;;;;;;;;;;;;;;;;;;;;
2023/02/14 02:17:35;;;;;;;27.70;17.60;;;;;;;4.96;74.91;102274.84;125274;1305;115438;-67
2023/02/14 02:21:31;;;;;;;;;;;;;;;;;;;;;
2023/02/14 02:25:38;;;;;;;;;;;;;;;;;;;;;
2023/02/14 02:30:02;;;;;;;;;;;;;;;;;;;;;
2023/02/14 02:34:20;;;;;;;26.30;16.70;;;;;;;4.93;74.80;102258.89;126191;1306;128809;-67
2023/02/14 02:38:29;;;;;;;28.40;18.40;;;;;;;4.92;74.96;102258.35;127246;1282;114938;-69
2023/02/14 02:42:26;;;;;;;;;;;;;;;;;;;;;
2023/02/14 02:54:39;;;;;;;25.50;17.00;;;;;;;4.89;75.04;102239.39;129457;1280;128730;-67
2023/02/14 02:58:39;;;;;;;25.20;16.00;;;;;;;4.87;74.92;102242.92;129612;1260;115191;-66
2023/02/14 03:04:46;;;;;;;28.60;16.50;;;;;;;4.88;74.67;102243.81;129390;1267;114895;-68
2023/02/14 03:06:33;;;;;;;28.70;17.60;;;;;;;4.86;74.76;102238.32;129205;1270;115214;-67
2023/02/14 03:10:36;;;;;;;25.60;15.80;;;;;;;4.85;74.75;102239.73;128218;1273;114933;-67
2023/02/14 03:14:48;;;;;;;27.20;16.20;;;;;;;4.85;74.80;102239.73;128338;1277;128902;-67
2023/02/14 03:18:54;;;;;;;23.80;16.70;;;;;;;4.84;74.65;102235.29;127947;1300;115198;-67
2023/02/14 03:22:55;;;;;;;;;;;;;;;;;;;;;
2023/02/14 03:26:57;;;;;;;27.30;17.60;;;;;;;4.83;74.67;102228.73;127966;1296;114746;-66
2023/02/14 03:30:52;;;;;;;30.00;16.60;;;;;;;4.81;74.49;102227.13;127857;1283;114910;-66
2023/02/14 03:35:08;;;;;;;27.10;16.10;;;;;;;4.80;74.48;102224.66;128003;1291;128839;-68
2023/02/14 03:39:15;;;;;;;25.90;16.00;;;;;;;4.79;74.63;102223.23;127889;1283;115243;-70
2023/02/14 03:43:24;;;;;;;18.30;12.90;;;;;;;4.79;74.63;102229.08;128413;1270;115097;-68
2023/02/14 03:47:30;;;;;;;20.90;14.30;;;;;;;4.77;74.44;102231.01;128236;1280;114840;-68
2023/02/14 03:51:33;;;;;;;22.00;14.70;;;;;;;4.77;74.53;102243.05;127229;1277;114837;-68
2023/02/14 03:55:34;;;;;;;23.80;15.50;;;;;;;4.78;74.60;102249.08;127072;1287;129830;-67
2023/02/14 03:59:36;;;;;;;28.90;16.10;;;;;;;4.77;74.35;102249.95;126340;1310;115361;-68
2023/02/14 04:03:28;;;;;;;27.30;16.30;;;;;;;4.78;74.37;102253.86;126393;1310;115301;-68
2023/02/14 04:07:28;;;;;;;;;;;;;;;;;;;;;
2023/02/14 04:11:33;;;;;;;24.70;15.80;;;;;;;4.78;74.44;102259.52;125356;1305;116447;-67
2023/02/14 04:15:24;;;;;;;;;;;;;;;;;;;;;
2023/02/14 04:19:45;;;;;;;25.60;16.60;;;;;;;4.80;74.51;102260.77;126342;1296;636684;-69
2023/02/14 04:23:40;;;;;;;;;;;;;;;;;;;;;
2023/02/14 04:27:37;;;;;;;23.80;16.80;;;;;;;4.79;74.36;102260.41;126196;1293;114917;-67
2023/02/14 04:31:40;;;;;;;24.70;16.70;;;;;;;4.79;74.38;102256.15;122435;1304;5421702;-67
2023/02/14 04:35:23;;;;;;;;;;;;;;;;;;;;;
2023/02/14 04:43:44;;;;;;;;;;;;;;;;;;;;;
2023/02/14 04:47:48;;;;;;;25.30;15.80;;;;;;;4.81;74.64;102258.11;127552;1287;128831;-67
2023/02/14 04:51:51;;;;;;;26.20;15.70;;;;;;;4.81;74.53;102255.63;126285;1293;115343;-67
2023/02/14 04:55:53;;;;;;;21.20;14.80;;;;;;;4.79;74.16;102256.52;121998;1299;5456326;-66
2023/02/14 04:59:38;;;;;;;24.20;15.80;;;;;;;4.79;74.26;102253.68;124968;1311;114961;-69
2023/02/14 05:03:31;;;;;;;;;;;;;;;;;;;;;
2023/02/14 05:11:52;;;;;;;22.60;15.00;;;;;;;4.80;74.02;102256.16;126131;1300;638442;-69
2023/02/14 05:15:47;;;;;;;;;;;;;;;;;;;;;
2023/02/14 05:19:51;;;;;;;22.10;14.20;;;;;;;4.78;74.10;102249.42;128281;1288;115462;-68
2023/02/14 05:23:53;;;;;;;25.80;14.80;;;;;;;4.76;74.20;102248.70;123177;1289;5430726;-68
2023/02/14 05:28:03;;;;;;;;;;;;;;;;;;;;;
2023/02/14 05:31:48;;;;;;;21.60;15.50;;;;;;;4.76;74.24;102251.18;125418;1308;114921;-70
2023/02/14 05:35:42;;;;;;;27.80;16.80;;;;;;;4.75;73.98;102254.70;124744;1328;114929;-70
2023/02/14 05:44:08;;;;;;;;;;;;;;;;;;;;;
2023/02/14 05:48:05;;;;;;;29.50;17.00;;;;;;;4.75;74.07;102258.44;129051;1271;127870;-69
2023/02/14 05:51:54;;;;;;;26.90;16.40;;;;;;;4.74;74.05;102262.14;128718;1274;115049;-68
2023/02/14 05:55:59;;;;;;;31.90;18.20;;;;;;;4.74;74.20;102268.70;125082;1278;5485601;-69
2023/02/14 05:59:58;;;;;;;;;;;;;;;;;;;;;
2023/02/14 06:07:49;;;;;;;;;;;;;;;;;;;;;
2023/02/14 06:15:32;;;;;;;;;;;;;;;;;;;;;
2023/02/14 06:19:32;;;;;;;28.20;16.70;;;;;;;4.68;74.11;102293.08;128064;1290;115024;-69
2023/02/14 06:23:30;;;;;;;27.30;16.20;;;;;;;4.67;74.06;102297.48;124510;1275;114865;-68
2023/02/14 06:27:08;;;;;;;26.20;16.20;;;;;;;4.68;74.16;102295.90;126882;1291;114941;-68
2023/02/14 06:31:03;;;;;;;;;;;;;;;;;;;;;
2023/02/14 06:35:06;;;;;;;;;;;;;;;;;;;;;
2023/02/14 06:39:01;;;;;;;33.40;16.50;;;;;;;4.70;74.26;102303.38;125682;1312;115445;-66
2023/02/14 06:42:47;;;;;;;;;;;;;;;;;;;;;
2023/02/14 06:46:41;;;;;;;;;;;;;;;;;;;;;
2023/02/14 06:50:47;;;;;;;24.00;15.60;;;;;;;4.71;73.97;102310.45;124794;1313;114984;-68
2023/02/14 06:54:39;;;;;;;23.90;16.00;;;;;;;4.71;74.01;102306.55;124467;1316;128414;-69
2023/02/14 06:58:23;;;;;;;22.90;15.50;;;;;;;4.73;73.94;102306.56;123656;1319;115301;-68
2023/02/14 07:02:45;;;;;;;28.40;16.20;;;;;;;4.79;74.02;102307.13;126141;1295;635322;-70
2023/02/14 07:06:24;;;;;;;;;;;;;;;;;;;;;
2023/02/14 07:10:27;;;;;;;30.60;16.40;;;;;;;4.81;74.16;102311.40;127818;1278;115358;-69
2023/02/14 07:14:14;;;;;;;;;;;;;;;;;;;;;
2023/02/14 07:18:19;;;;;;;27.40;14.20;;;;;;;4.87;73.88;102314.98;121909;1301;114885;-68
2023/02/14 07:22:18;;;;;;;;;;;;;;;;;;;;;
2023/02/14 07:30:38;;;;;;;28.20;14.20;;;;;;;5.02;73.65;102311.18;126162;1299;637179;-68
2023/02/14 07:34:33;;;;;;;19.90;14.20;;;;;;;5.04;73.71;102322.52;128821;1292;127887;-67
2023/02/14 07:38:18;;;;;;;22.40;14.40;;;;;;;5.07;73.46;102321.66;128578;1289;115249;-68
2023/02/14 07:42:28;;;;;;;21.90;13.30;;;;;;;5.12;73.46;102323.81;128298;1290;114835;-68
2023/02/14 07:46:16;;;;;;;;;;;;;;;;;;;;;
2023/02/14 07:54:16;;;;;;;22.60;13.80;;;;;;;5.29;73.66;102320.54;125690;1319;114964;-68
2023/02/14 07:58:18;;;;;;;20.10;12.50;;;;;;;5.34;73.28;102320.38;125061;1309;129689;-68
2023/02/14 08:06:32;;;;;;;;;;;;;;;;;;;;;
2023/02/14 08:10:28;;;;;;;20.50;12.50;;;;;;;5.52;72.90;102316.21;127621;1277;128737;-69
2023/02/14 08:14:32;;;;;;;21.00;13.40;;;;;;;5.58;72.85;102323.86;127531;1286;114835;-68
2023/02/14 08:18:21;;;;;;;20.80;11.70;;;;;;;5.64;72.88;102332.91;122487;1295;5376273;-68
2023/02/14 08:22:21;;;;;;;17.00;11.10;;;;;;;5.70;72.83;102334.54;126335;1297;114950;-68
2023/02/14 08:26:16;;;;;;;17.50;12.00;;;;;;;5.77;72.97;102333.85;125904;1304;114910;-68
2023/02/14 08:30:34;;;;;;;19.30;11.40;;;;;;;5.86;72.75;102336.19;126850;1309;128996;-68
2023/02/14 08:34:33;;;;;;;20.10;11.60;;;;;;;5.91;72.67;102336.56;125692;1303;115534;-70
2023/02/14 08:42:43;;;;;;;;;;;;;;;;;;;;;
2023/02/14 08:46:46;;;;;;;17.60;12.10;;;;;;;6.12;72.18;102335.04;128650;1278;129016;-69
2023/02/14 08:50:42;;;;;;;;;;;;;;;;;;;;;
2023/02/14 08:54:29;;;;;;;;;;;;;;;6.27;71.92;102339.69;127330;1278;5453503;-69
2023/02/14 08:58:34;;;;;;;13.40;10.20;;;;;;;6.32;71.99;102338.96;126897;1303;114947;-68
2023/02/14 09:02:56;;;;;;;18.90;11.60;;;;;;;6.38;71.95;102332.24;125793;1302;129104;-70
2023/02/14 09:06:37;;;;;;;;;;;;;;;;;;;;;
2023/02/14 09:10:32;;;;;;;19.40;12.00;;;;;;;6.61;71.68;102339.34;124925;1321;115006;-68
2023/02/14 09:14:23;;;;;;;;;;;;;;;;;;;;;
2023/02/14 09:22:39;;;;;;;;;;;;;;;;;;;;;
2023/02/14 09:26:18;;;;;;;19.30;10.80;;;;;;;6.97;71.46;102347.67;128969;1277;129009;-68
2023/02/14 09:30:22;;;;;;;16.10;11.80;;;;;;;7.05;71.17;102350.49;127651;1296;115329;-69
2023/02/14 09:38:23;;;;;;;12.30;10.00;;;;;;;7.17;70.76;102353.48;122301;1309;114897;-70
2023/02/14 09:42:28;;;;;;;;;;;;;;;;;;;;;
2023/02/14 09:50:52;;;;;;;18.90;10.50;;;;;;;7.35;70.05;102350.25;126134;1295;637494;-68
2023/02/14 09:54:44;;;;;;;;;;;;;;;;;;;;;
2023/02/14 09:58:54;;;;;;;21.50;10.50;;;;;;;7.44;69.85;102355.55;127508;1303;115259;-66
2023/02/14 10:03:06;;;;;;;;;;;;;;;;;;;;;
2023/02/14 10:07:14;;;;;;;;;;;;;;;;;;;;;
2023/02/14 10:11:38;;;;;;;;;;;;;;;;;;;;;
2023/02/14 10:15:41;;;;;;;13.50;9.50;;;;;;;7.65;68.98;102357.08;127484;1286;129681;-68
2023/02/14 10:19:48;;;;;;;13.40;8.60;;;;;;;7.64;69.10;102348.01;126264;1297;115436;-70
2023/02/14 10:28:36;;;;;;;15.50;9.70;;;;;;;7.71;68.63;102345.49;126774;1292;636325;-70
2023/02/14 10:32:29;;;;;;;;;;;;;;;;;;;;;
2023/02/14 10:36:45;;;;;;;24.00;11.30;;;;;;;7.76;68.45;102343.52;129363;1266;115174;-70
2023/02/14 10:40:41;;;;;;;14.10;9.50;;;;;;;7.79;68.60;102335.85;125410;1270;5467558;-68
2023/02/14 10:44:34;;;;;;;;;;;;;;;;;;;;;
2023/02/14 10:48:54;;;;;;;20.30;12.30;;;;;;;7.88;68.16;102329.21;130213;1259;115740;-71
2023/02/14 10:53:11;;;;;;;18.90;12.90;;;;;;;7.91;67.81;102331.15;130094;1257;114663;-70
2023/02/14 10:57:15;;;;;;;17.30;10.90;;;;;;;7.98;67.99;102324.52;130148;1259;127991;-70
2023/02/14 11:05:33;;;;;;;22.60;13.20;;;;;;;8.15;67.31;102321.04;130156;1259;114854;-68
2023/02/14 11:09:10;;;;;;;;;;;;;;;;;;;;;
2023/02/14 11:17:24;;;;;;;;;;;;;;;;;;;;;
2023/02/14 11:25:36;;;;;;;;;;;;;;;;;;;;;
2023/02/14 11:29:41;;;;;;;11.60;6.90;;;;;;;8.50;67.01;102311.55;126068;1301;114831;-70
2023/02/14 11:33:36;;;;;;;;;;;;;;;;;;;;;
2023/02/14 11:37:26;;;;;;;14.60;7.90;;;;;;;8.62;66.36;102295.42;124975;1328;127883;-70
2023/02/14 11:41:56;;;;;;;12.50;7.00;;;;;;;8.70;66.26;102295.34;125860;1298;639690;-71
2023/02/14 11:46:15;;;;;;;13.40;7.30;;;;;;;8.73;65.91;102290.34;128307;1281;128030;-69
2023/02/14 11:50:25;;;;;;;13.30;7.00;;;;;;;8.74;65.64;102288.02;127353;1287;115479;-69
2023/02/14 11:54:27;;;;;;;10.70;6.70;;;;;;;8.80;65.62;102284.02;123465;1287;5538935;-69
2023/02/14 11:58:30;;;;;;;12.70;8.70;;;;;;;8.86;65.58;102277.36;127352;1288;114820;-70
2023/02/14 12:02:18;;;;;;;;;;;;;;;;;;;;;
2023/02/14 12:06:05;;;;;;;6.70;3.60;;;;;;;8.96;65.10;102277.98;125830;1303;114897;-70
2023/02/14 12:10:05;;;;;;;;;;;;;;;;;;;;;
2023/02/14 12:14:01;;;;;;;7.10;4.40;;;;;;;9.00;64.36;102278.64;124946;1310;115344;-69
2023/02/14 12:18:14;;;;;;;9.10;4.30;;;;;;;8.91;63.56;102275.36;124975;1309;114922;-69
2023/02/14 12:22:25;;;;;;;6.80;3.70;;;;;;;8.86;63.70;102270.96;124700;1315;115156;-67
2023/02/14 12:26:35;;;;;;;9.90;5.40;;;;;;;8.87;63.62;102271.30;125540;1306;114998;-70
2023/02/14 12:30:45;;;;;;;8.00;4.20;;;;;;;8.87;63.05;102268.98;125540;1305;130055;-68
2023/02/14 12:34:38;;;;;;;;;;;;;;;;;;;;;
2023/02/14 12:38:44;;;;;;;10.50;5.30;;;;;;;8.91;63.39;102261.29;125565;1317;116510;-67
2023/02/14 12:43:06;;;;;;;7.60;4.50;;;;;;;8.91;63.28;102259.50;126014;1313;115005;-69
2023/02/14 12:47:13;;;;;;;13.10;7.70;;;;;;;8.87;63.32;102251.16;126594;1295;114874;-70
2023/02/14 12:55:12;;;;;;;9.10;5.00;;;;;;;8.82;63.37;102251.58;127381;1284;115366;-69
2023/02/14 12:59:15;;;;;;;;;;;;;;;;;;;;;
2023/02/14 13:03:33;;;;;;;6.80;4.20;;;;;;;8.75;62.71;102246.30;128018;1281;115064;-70
2023/02/14 13:07:36;;;;;;;;;;;;;;;;;;;;;
2023/02/14 13:12:06;;;;;;;11.90;5.50;;;;;;;8.66;62.86;102243.19;128094;1280;129054;-71
2023/02/14 13:16:18;;;;;;;;;;;;;;;;;;;;;
2023/02/14 13:24:30;;;;;;;;;;;;;;;;;;;;;
2023/02/14 13:28:12;;;;;;;24.60;11.40;;;;;;;8.54;62.44;102240.10;129038;1274;115251;-70
2023/02/14 13:32:15;;;;;;;;;;;;;;;;;;;;;
2023/02/14 13:36:04;;;;;;;;;;;;;;;;;;;;;
2023/02/14 13:39:43;;;;;;;;;;;;;;;;;;;;;
2023/02/14 13:43:39;;;;;;;;;;;;;;;;;;;;;
2023/02/14 13:47:49;;;;;;;7.80;5.30;;;;;;;8.29;62.16;102229.80;126263;1299;114958;-71
2023/02/14 13:51:51;;;;;;;7.70;5.20;;;;;;;8.18;62.22;102235.23;125462;1323;129059;-67
2023/02/14 13:55:55;;;;;;;12.00;7.30;;;;;;;8.15;62.49;102239.70;124913;1310;115286;-73
2023/02/14 13:59:39;;;;;;;10.00;6.20;;;;;;;8.10;62.46;102241.71;124310;1325;114995;-72
2023/02/14 14:03:36;;;;;;;14.70;8.50;;;;;;;8.00;62.42;102242.31;123806;1337;114869;-69
2023/02/14 14:07:54;;;;;;;15.10;8.30;;;;;;;7.87;62.44;102242.93;123552;1338;114924;-70
2023/02/14 14:12:00;;;;;;;;;;;;;;;;;;;;;
2023/02/14 14:15:50;;;;;;;12.30;6.60;;;;;;;7.71;62.49;102243.02;124190;1315;115028;-69
2023/02/14 14:19:49;;;;;;;;;;;;;;;;;;;;;
2023/02/14 14:28:11;;;;;;;17.60;8.10;;;;;;;7.51;62.05;102236.58;125722;1319;114938;-68
2023/02/14 14:32:08;;;;;;;;;;;;;;;;;;;;;
2023/02/14 14:36:13;;;;;;;5.90;4.50;;;;;;;7.48;62.10;102234.81;125868;1296;116660;-70
2023/02/14 14:40:07;;;;;;;;;;;;;;;;;;;;;
2023/02/14 14:44:07;;;;;;;;;;;;;;;;;;;;;
2023/02/14 14:48:10;;;;;;;10.60;6.30;;;;;;;7.34;62.40;102239.33;124400;1331;114995;-69
2023/02/14 14:56:06;;;;;;;;;;;;;;;;;;;;;
2023/02/14 15:00:02;;;;;;;;;;;;;;;;;;;;;
2023/02/14 15:03:56;;;;;;;11.20;6.80;;;;;;;7.19;62.61;102230.86;129061;1283;115270;-70
2023/02/14 15:07:59;;;;;;;10.10;5.80;;;;;;;7.14;62.30;102220.05;129416;1267;114741;-68
2023/02/14 15:15:59;;;;;;;10.90;6.70;;;;;;;7.03;62.36;102213.52;127660;1286;114945;-68
2023/02/14 15:19:54;;;;;;;;;;;;;;;;;;;;;
2023/02/14 15:23:39;;;;;;;;;;;;;;;;;;;;;
2023/02/14 15:27:33;;;;;;;12.40;7.80;;;;;;;6.84;62.59;102214.30;128022;1284;115362;-69
2023/02/14 15:31:11;;;;;;;;;;;;;;;;;;;;;
2023/02/14 15:35:05;;;;;;;17.50;10.40;;;;;;;6.72;62.59;102212.19;126882;1289;114915;-70
2023/02/14 15:39:05;;;;;;;;;;;;;;;;;;;;;
2023/02/14 15:42:59;;;;;;;;;;;;;;;;;;;;;
2023/02/14 15:47:07;;;;;;;11.50;7.10;;;;;;;6.59;63.23;102203.18;125563;1323;115329;-67
2023/02/14 15:51:12;;;;;;;8.10;5.40;;;;;;;6.53;63.20;102199.29;125839;1319;114957;-69
2023/02/14 15:55:26;;;;;;;18.30;10.30;;;;;;;6.48;63.36;102202.48;126327;1312;115694;-69
2023/02/14 15:59:26;;;;;;;;;;;;;;;;;;;;;
2023/02/14 16:03:34;;;;;;;12.40;9.80;;;;;;;6.36;63.57;102203.92;126735;1291;127992;-69
2023/02/14 16:07:17;;;;;;;;;;;;;;;6.30;63.75;102199.49;126310;1295;114967;-69
2023/02/14 16:11:14;;;;;;;;;;;;;;;;;;;;;
2023/02/14 16:19:32;;;;;;;14.80;8.70;;;;;;;6.13;64.24;102205.54;127039;1294;115039;-68
2023/02/14 16:23:22;;;;;;;;;;;;;;;;;;;;;
2023/02/14 16:31:37;;;;;;;23.60;13.70;;;;;;;5.98;64.48;102211.52;127832;1292;114903;-69
2023/02/14 16:35:24;;;;;;;48.90;24.90;;;;;;;5.93;64.55;102206.92;127298;1305;114773;-66
2023/02/14 16:39:26;;;;;;;32.40;18.20;;;;;;;5.88;64.44;102212.42;126486;1311;115210;-69
2023/02/14 16:43:25;;;;;;;28.30;14.50;;;;;;;5.83;64.22;102211.88;125791;1302;129040;-70
2023/02/14 16:51:49;;;;;;;21.50;11.90;;;;;;;5.74;64.51;102212.39;126409;1291;635591;-68
2023/02/14 16:55:27;;;;;;;30.20;17.10;;;;;;;5.68;64.72;102205.66;128786;1276;127825;-70
2023/02/14 16:59:14;;;;;;;43.00;23.40;;;;;;;5.65;64.92;102210.61;128765;1284;114906;-70
2023/02/14 17:03:14;;;;;;;;;;;;;;;;;;;;;
2023/02/14 17:06:55;;;;;;;;;;;;;;;;;;;;;
2023/02/14 17:11:14;;;;;;;52.00;29.70;;;;;;;5.54;65.41;102214.30;127768;1283;114865;-69
2023/02/14 17:15:15;;;;;;;45.00;25.40;;;;;;;5.48;65.23;102210.75;126798;1295;114833;-70
2023/02/14 17:19:09;;;;;;;;;;;;;;;;;;;;;
2023/02/14 17:22:55;;;;;;;;;;;;;;;;;;;;;
2023/02/14 17:27:13;;;;;;;;;;;;;;;;;;;;;
2023/02/14 17:31:17;;;;;;;24.50;16.10;;;;;;;5.33;65.82;102213.55;129093;1271;129000;-69
2023/02/14 17:35:13;;;;;;;;;;;;;;;;;;;;;
2023/02/14 17:38:55;;;;;;;;;;;;;;;;;;;;;
2023/02/14 17:43:00;;;;;;;35.50;23.10;;;;;;;5.26;66.08;102217.60;128177;1280;114805;-70
2023/02/14 17:46:54;;;;;;;32.40;19.60;;;;;;;5.22;66.34;102211.55;126612;1293;115611;-68
2023/02/14 17:50:55;;;;;;;28.80;18.20;;;;;;;5.21;66.22;102215.98;125646;1299;114998;-71
2023/02/14 18:03:19;;;;;;;25.80;16.30;;;;;;;5.03;66.03;102210.95;128200;1280;127801;-71
2023/02/14 18:07:14;;;;;;;24.50;17.70;;;;;;;4.97;65.99;102211.81;126518;1295;115477;-72
2023/02/14 18:11:14;;;;;;;23.80;16.40;;;;;;;4.91;65.94;102214.97;121695;1301;5455356;-72
2023/02/14 18:15:16;;;;;;;24.80;20.50;;;;;;;4.84;66.12;102214.05;124380;1306;114928;-72
2023/02/14 18:19:15;;;;;;;;;;;;;;;;;;;;;
2023/02/14 18:23:39;;;;;;;32.70;21.90;;;;;;;4.72;66.34;102212.23;126273;1297;637232;-71
2023/02/14 18:27:40;;;;;;;32.50;21.30;;;;;;;4.60;66.27;102214.45;129318;1271;127983;-72
2023/02/14 18:31:41;;;;;;;;;;;;;;;;;;;;;
2023/02/14 18:35:44;;;;;;;25.60;17.80;;;;;;;4.40;66.14;102216.44;123349;1289;5318551;-69
2023/02/14 18:39:35;;;;;;;25.80;16.90;;;;;;;4.34;66.48;102212.15;126463;1294;115873;-70
2023/02/14 18:47:56;;;;;;;;;;;;;;;;;;;;;
2023/02/14 18:52:05;;;;;;;;;;;;;;;;;;;;;
2023/02/14 18:56:09;;;;;;;30.30;21.00;;;;;;;4.24;66.76;102197.57;127514;1287;114827;-70
2023/02/14 18:59:46;;;;;;;;;;;;;;;;;;;;;
2023/02/14 19:04:04;;;;;;;74.80;52.50;;;;;;;4.14;66.71;102193.42;125714;1314;114894;-74
2023/02/14 19:07:49;;;;;;;;;;;;;;;;;;;;;
2023/02/14 19:11:51;;;;;;;66.00;50.20;;;;;;;4.07;67.22;102186.30;125543;1302;115052;-73
2023/02/14 19:15:40;;;;;;;34.30;22.20;;;;;;;4.02;67.13;102185.73;124245;1314;130782;-71
2023/02/14 19:19:34;;;;;;;;;;;;;;;;;;;;;
2023/02/14 19:24:01;;;;;;;25.40;17.80;;;;;;;3.97;67.30;102180.58;125617;1304;639832;-70
2023/02/14 19:28:05;;;;;;;29.70;17.50;;;;;;;3.93;67.45;102180.00;128087;1297;128409;-69
2023/02/14 19:32:00;;;;;;;;;;;;;;;;;;;;;
2023/02/14 19:40:09;;;;;;;30.10;20.00;;;;;;;3.92;67.62;102175.21;126655;1296;636349;-70
2023/02/14 19:44:12;;;;;;;32.00;20.00;;;;;;;3.89;67.63;102177.48;129076;1269;128811;-70
2023/02/14 19:48:06;;;;;;;;;;;;;;;;;;;;;
2023/02/14 19:52:15;;;;;;;44.70;26.70;;;;;;;3.86;68.00;102172.88;124889;1288;5454493;-69
2023/02/14 19:56:16;;;;;;;42.70;24.20;;;;;;;3.81;67.95;102175.48;125933;1297;114935;-69
2023/02/14 20:00:10;;;;;;;30.30;18.80;;;;;;;3.75;67.91;102175.23;124629;1310;114962;-72
2023/02/14 20:08:24;;;;;;;;;;;;;;;;;;;;;
2023/02/14 20:12:33;;;;;;;25.50;17.10;;;;;;;3.51;67.88;102170.27;128734;1277;127938;-67
2023/02/14 20:16:34;;;;;;;;;;;;;;;;;;;;;
2023/02/14 20:21:00;;;;;;;34.60;20.00;;;;;;;3.27;67.93;102163.82;122391;1299;5442439;-66
2023/02/14 20:24:44;;;;;;;32.90;22.90;;;;;;;3.12;67.88;102162.24;124487;1314;114900;-67
2023/02/14 20:28:47;;;;;;;29.40;19.40;;;;;;;2.96;67.60;102170.53;124187;1331;114975;-68
2023/02/14 20:36:59;;;;;;;;;;;;;;;;;;;;;
2023/02/14 20:40:52;;;;;;;;;;;;;;;;;;;;;
2023/02/14 20:44:48;;;;;;;;;;;;;;;;;;;;;
2023/02/14 20:48:34;;;;;;;;;;;;;;;;;;;;;
2023/02/14 20:52:39;;;;;;;37.50;23.90;;;;;;;1.96;68.48;102161.02;122832;1292;114775;-67
2023/02/14 20:56:06;;;;;;;34.30;22.50;;;;;;;1.82;68.51;102163.43;125705;1311;115063;-67
2023/02/14 20:59:52;;;;;;;44.20;25.40;;;;;;;1.69;68.37;102156.85;125659;1319;114950;-69
2023/02/14 21:03:52;;;;;;;43.80;25.00;;;;;;;1.54;68.45;102158.90;125110;1299;128993;-69
2023/02/14 21:16:15;;;;;;;;;;;;;;;;;;;;;
2023/02/14 21:20:20;;;;;;;49.50;27.80;;;;;;;1.01;69.40;102156.13;128057;1282;128611;-67
2023/02/14 21:24:23;;;;;;;48.80;28.00;;;;;;;0.91;69.35;102156.63;127199;1297;115287;-67
2023/02/14 21:28:25;;;;;;;47.70;25.70;;;;;;;0.82;69.30;102156.82;123090;1305;5449277;-67
2023/02/14 21:32:19;;;;;;;42.70;25.40;;;;;;;0.75;69.42;102144.36;126586;1292;114801;-66
2023/02/14 21:36:21;;;;;;;47.10;26.60;;;;;;;0.68;70.07;102144.73;126102;1296;114903;-67
2023/02/14 21:52:35;;;;;;;58.00;29.90;;;;;;;0.42;70.52;102134.17;128613;1276;115317;-66
2023/02/14 21:56:22;;;;;;;;;;;;;;;;;;;;;
2023/02/14 22:00:17;;;;;;;50.20;28.40;;;;;;;0.26;70.74;102125.19;126751;1287;114909;-65
2023/02/14 22:03:59;;;;;;;54.40;30.30;;;;;;;0.19;70.66;102115.36;125403;1301;114949;-66
2023/02/14 22:08:02;;;;;;;63.10;34.30;;;;;;;0.11;70.81;102119.79;125493;1308;114955;-66
2023/02/14 22:11:46;;;;;;;58.50;30.30;;;;;;;0.02;70.83;102115.88;124275;1313;128517;-66
2023/02/14 22:15:40;;;;;;;;;;;;;;;;;;;;;
2023/02/14 22:20:04;;;;;;;68.10;36.10;;;;;;;-0.11;71.31;102112.93;125940;1299;636026;-68
2023/02/14 22:24:06;;;;;;;60.00;31.30;;;;;;;-0.20;71.34;102112.38;127551;1283;130162;-67
2023/02/14 22:28:01;;;;;;;;;;;;;;;;;;;;;
2023/02/14 22:32:04;;;;;;;68.90;35.20;;;;;;;-0.33;72.07;102116.79;121606;1323;5486069;-67
2023/02/14 22:36:02;;;;;;;65.30;33.50;;;;;;;-0.38;72.14;102107.20;124073;1323;115093;-66
2023/02/14 22:44:25;;;;;;;;;;;;;;;;;;;;;
2023/02/14 22:48:16;;;;;;;;;;;;;;;;;;;;;
2023/02/14 22:52:19;;;;;;;92.90;45.20;;;;;;;-0.50;72.73;102099.52;128128;1291;115479;-67
2023/02/14 22:56:22;;;;;;;76.80;41.90;;;;;;;-0.53;72.89;102096.10;123058;1289;5842734;-69
2023/02/14 23:00:12;;;;;;;93.80;46.30;;;;;;;-0.56;73.04;102092.50;127251;1286;114886;-67
2023/02/14 23:04:14;;;;;;;90.70;46.50;;;;;;;-0.59;73.45;102085.61;126219;1316;114961;-68
2023/02/14 23:08:07;;;;;;;;;;;;;;;;;;;;;
2023/02/14 23:29:39;;;;;;;79.90;41.80;;;;;;;-0.54;74.34;102053.79;125740;1303;652409;-68
2023/02/14 23:33:29;;;;;;;80.40;41.50;;;;;;;-0.53;74.42;102046.62;127617;1286;129840;-68
2023/02/14 23:37:30;;;;;;;;;;;;;;;;;;;;;
2023/02/14 23:44:27;;;;;;;84.80;42.80;;;;;;;-0.52;75.07;102037.01;126014;1299;114990;-67
2023/02/14 23:48:22;;;;;;;76.20;40.60;;;;;;;-0.48;75.04;102032.69;126293;1291;636136;-67
2023/02/14 23:51:31;;;;;;;99.10;46.30;;;;;;;-0.49;75.10;102031.61;129061;1278;128858;-67
2023/02/14 23:54:38;;;;;;;93.80;47.30;;;;;;;-0.49;75.05;102030.56;129027;1291;115280;-67
2023/02/14 23:58:06;;;;;;;106.30;48.60;;;;;;;-0.50;74.80;102029.50;128980;1269;114728;-67
